Time;durP1;ratioP1;P1;durP2;ratioP2;P2;SDS_P1;SDS_P2;PMS_P1;PMS_P2;Temp;Humidity;BMP_temperature;BMP_pressure;BME280_temperature;BME280_humidity;BME280_pressure;Samples;Min_cycle;Max_cycle;Signal;HPM_P1;HPM_P2
2022/04/17 00:00:38;;;;;;;6.07;3.58;;;;;;;5.16;53.76;100751.69;4992726;28;20107;-53
2022/04/17 00:03:03;;;;;;;5.28;3.40;;;;;;;5.02;54.78;100752.38;4996211;28;20026;-51
2022/04/17 00:05:28;;;;;;;5.57;3.50;;;;;;;4.80;59.97;100752.09;4990283;28;20053;-50
2022/04/17 00:07:54;;;;;;;5.40;3.50;;;;;;;4.65;57.65;100751.91;4990910;28;20481;-52
2022/04/17 00:10:19;;;;;;;7.43;3.63;;;;;;;4.51;59.47;100747.28;4994317;28;20392;-54
2022/04/17 00:12:45;;;;;;;6.45;3.60;;;;;;;4.66;59.59;100748.25;4993337;28;20414;-53
2022/04/17 00:15:10;;;;;;;6.22;3.50;;;;;;;4.49;56.13;100742.13;4989235;28;20046;-53
2022/04/17 00:17:42;;;;;;;7.25;3.55;;;;;;;4.47;59.38;100749.44;4989201;28;20126;-50
2022/04/17 00:20:11;;;;;;;4.70;3.30;;;;;;;4.69;62.78;100752.41;4992960;28;20654;-53
2022/04/17 00:22:36;;;;;;;7.30;3.58;;;;;;;4.62;59.04;100751.41;4988083;28;20113;-54
2022/04/17 00:25:02;;;;;;;5.10;3.08;;;;;;;4.63;60.50;100748.59;4987889;28;20385;-53
2022/04/17 00:27:27;;;;;;;6.32;3.40;;;;;;;4.59;56.79;100741.94;4988555;28;20508;-51
2022/04/17 00:29:53;;;;;;;5.68;3.47;;;;;;;4.87;56.97;100729.16;4987402;28;20112;-53
2022/04/17 00:32:18;;;;;;;7.15;3.60;;;;;;;4.86;54.35;100732.81;4994817;28;20046;-52
2022/04/17 00:34:45;;;;;;;6.57;3.58;;;;;;;4.73;54.81;100725.34;4993286;28;20141;-53
2022/04/17 00:37:10;;;;;;;6.45;3.58;;;;;;;4.80;56.75;100733.47;4998524;28;20480;-55
2022/04/17 00:39:36;;;;;;;8.32;3.30;;;;;;;4.80;57.61;100728.16;4993377;28;20022;-51
2022/04/17 00:42:04;;;;;;;7.30;3.45;;;;;;;4.67;55.69;100725.22;4996279;28;20510;-52
2022/04/17 00:44:30;;;;;;;6.05;3.47;;;;;;;4.67;55.53;100728.69;4996238;28;20041;-51
2022/04/17 00:46:55;;;;;;;5.78;3.30;;;;;;;4.66;55.97;100719.03;4987864;28;20485;-53
2022/04/17 00:49:21;;;;;;;6.32;3.75;;;;;;;4.63;55.43;100729.19;4995760;28;20392;-51
2022/04/17 00:51:47;;;;;;;6.45;3.72;;;;;;;4.80;55.48;100725.50;4994872;28;20077;-51
2022/04/17 00:54:13;;;;;;;7.47;3.78;;;;;;;4.63;55.11;100731.84;4988931;28;20042;-53
2022/04/17 00:56:38;;;;;;;7.40;3.67;;;;;;;4.07;59.29;100727.16;4986095;28;20461;-53
2022/04/17 00:59:09;;;;;;;5.72;3.72;;;;;;;3.70;60.54;100729.41;4994874;28;20029;-52
2022/04/17 01:01:35;;;;;;;6.38;4.07;;;;;;;3.38;62.14;100736.22;4987235;28;20125;-54
2022/04/17 01:04:01;;;;;;;6.75;4.00;;;;;;;3.21;63.06;100730.84;4995137;28;20388;-52
2022/04/17 01:06:26;;;;;;;6.13;3.97;;;;;;;3.11;63.12;100730.13;4994776;28;20046;-52
2022/04/17 01:08:52;;;;;;;5.90;3.80;;;;;;;3.03;63.81;100722.13;4986729;28;20038;-51
2022/04/17 01:11:18;;;;;;;7.28;4.18;;;;;;;2.86;67.90;100715.06;4987605;28;20039;-53
2022/04/17 01:13:43;;;;;;;7.63;4.10;;;;;;;2.78;66.06;100719.31;4978326;28;20374;-54
2022/04/17 01:16:09;;;;;;;6.20;3.60;;;;;;;2.65;71.73;100718.91;4988622;28;20283;-52
2022/04/17 01:19:01;;;;;;;10.40;4.30;;;;;;;2.62;67.07;100707.78;4996466;28;20124;-51
2022/04/17 01:21:29;;;;;;;6.70;3.97;;;;;;;2.54;66.98;100705.91;4992092;28;20046;-51
2022/04/17 01:26:56;;;;;;;8.88;4.20;;;;;;;2.21;67.52;100702.19;4992491;28;20072;-53
2022/04/17 01:29:39;;;;;;;5.72;3.75;;;;;;;2.30;67.71;100710.03;4991945;28;20512;-50
2022/04/17 01:32:06;;;;;;;7.13;4.53;;;;;;;2.34;67.55;100699.97;4994666;28;20244;-54
2022/04/17 01:34:32;;;;;;;6.10;4.07;;;;;;;2.30;66.30;100694.16;4996388;28;20065;-51
2022/04/17 01:36:58;;;;;;;6.15;3.80;;;;;;;2.49;67.43;100681.72;4986644;28;20049;-49
2022/04/17 01:39:23;;;;;;;7.30;4.13;;;;;;;2.32;66.62;100676.31;4989444;28;20045;-52
2022/04/17 01:41:49;;;;;;;8.02;4.10;;;;;;;2.20;66.82;100680.19;4989467;28;20034;-50
2022/04/17 01:44:16;;;;;;;8.50;4.07;;;;;;;2.13;66.29;100681.78;4991188;28;20455;-51
2022/04/17 01:46:42;;;;;;;6.55;4.25;;;;;;;1.96;69.03;100690.53;4992160;28;20034;-51
2022/04/17 01:49:07;;;;;;;7.75;4.43;;;;;;;1.62;70.52;100694.69;4987763;28;20101;-53
2022/04/17 01:51:35;;;;;;;7.43;4.05;;;;;;;1.98;70.88;100685.94;4988485;28;20034;-53
2022/04/17 01:54:02;;;;;;;9.68;4.40;;;;;;;1.96;67.74;100688.72;4991029;28;20058;-53
2022/04/17 01:56:28;;;;;;;7.93;4.13;;;;;;;2.05;67.91;100673.78;4989324;28;20136;-54
2022/04/17 01:58:54;;;;;;;7.68;4.47;;;;;;;2.08;67.28;100673.47;4996498;28;20393;-53
2022/04/17 02:01:19;;;;;;;8.20;3.05;;;;;;;2.46;65.30;100674.09;4994020;28;20569;-51
2022/04/17 02:03:45;;;;;;;6.85;4.13;;;;;;;2.35;65.02;100669.91;5000527;28;20064;-52
2022/04/17 02:06:10;;;;;;;8.20;4.20;;;;;;;2.33;68.91;100656.81;4999107;28;20373;-53
2022/04/17 02:08:36;;;;;;;5.40;3.92;;;;;;;2.12;67.32;100649.22;4996739;28;20068;-52
2022/04/17 02:11:02;;;;;;;5.30;3.55;;;;;;;2.24;65.83;100652.44;4995026;28;20564;-51
2022/04/17 02:13:28;;;;;;;5.80;3.85;;;;;;;2.23;65.51;100650.78;4999296;28;20026;-51
2022/04/17 02:15:53;;;;;;;5.78;4.13;;;;;;;2.13;66.25;100655.31;4994557;28;20042;-54
2022/04/17 02:18:22;;;;;;;9.68;4.50;;;;;;;1.83;69.01;100649.44;4996879;28;20037;-51
2022/04/17 02:20:48;;;;;;;5.40;4.20;;;;;;;1.72;70.00;100657.59;4995268;28;20042;-54
2022/04/17 02:23:14;;;;;;;7.45;4.72;;;;;;;1.55;70.72;100648.69;4990634;28;20519;-50
2022/04/17 02:25:40;;;;;;;6.22;3.75;;;;;;;1.52;70.52;100648.94;4994763;28;20094;-50
2022/04/17 02:28:05;;;;;;;5.97;4.05;;;;;;;1.51;70.21;100650.75;4998126;28;20035;-50
2022/04/17 02:30:31;;;;;;;6.32;3.78;;;;;;;1.62;70.31;100651.53;4993984;28;20484;-50
2022/04/17 02:32:57;;;;;;;7.00;4.32;;;;;;;1.58;70.14;100652.84;4990740;28;20033;-51
2022/04/17 02:35:22;;;;;;;5.50;3.78;;;;;;;1.57;70.34;100653.78;4997345;28;20094;-52
2022/04/17 02:37:47;;;;;;;6.32;4.20;;;;;;;1.78;70.74;100651.72;4995381;28;20030;-50
2022/04/17 02:40:13;;;;;;;13.82;5.72;;;;;;;1.51;69.88;100656.06;4990115;28;20049;-51
2022/04/17 02:42:38;;;;;;;19.55;7.68;;;;;;;1.70;69.24;100649.81;4995102;28;20022;-50
2022/04/17 02:45:04;;;;;;;16.92;5.82;;;;;;;1.80;68.52;100643.59;4993013;28;20431;-50
2022/04/17 02:47:46;;;;;;;15.52;6.70;;;;;;;1.94;68.07;100646.56;4990093;28;20027;-50
2022/04/17 02:50:13;;;;;;;18.55;6.78;;;;;;;1.99;67.75;100632.06;5000117;28;20385;-50
2022/04/17 02:52:38;;;;;;;12.30;5.63;;;;;;;2.23;67.30;100628.78;4988730;28;20026;-49
2022/04/17 02:55:04;;;;;;;15.65;6.05;;;;;;;2.43;65.72;100632.06;4994378;28;20077;-50
2022/04/17 02:57:30;;;;;;;12.57;5.53;;;;;;;2.25;67.16;100626.81;4997220;28;20140;-50
2022/04/17 02:59:56;;;;;;;7.72;4.43;;;;;;;2.30;68.13;100628.00;4996318;28;20161;-50
2022/04/17 03:07:50;;;;;;;8.63;4.97;;;;;;;1.80;68.50;100627.75;4990137;28;20056;-51
2022/04/17 03:10:15;;;;;;;9.50;5.07;;;;;;;1.58;69.52;100629.03;4989601;28;20042;-51
2022/04/17 03:12:41;;;;;;;5.25;3.70;;;;;;;1.70;68.07;100617.28;4993990;28;20030;-50
2022/04/17 03:15:06;;;;;;;5.85;3.78;;;;;;;1.72;67.86;100617.94;4988758;28;20619;-49
2022/04/17 03:17:32;;;;;;;5.63;3.83;;;;;;;1.72;69.59;100625.84;4995045;28;20113;-53
2022/04/17 03:19:57;;;;;;;6.80;4.18;;;;;;;1.73;69.41;100628.38;4989646;28;20547;-51
2022/04/17 03:22:23;;;;;;;6.57;3.95;;;;;;;1.49;70.54;100628.94;4992296;28;20124;-52
2022/04/17 03:24:49;;;;;;;6.32;4.13;;;;;;;1.34;70.35;100627.78;4995360;28;20393;-51
2022/04/17 03:27:14;;;;;;;6.20;3.83;;;;;;;1.46;69.67;100621.31;4993806;28;20145;-52
2022/04/17 03:29:40;;;;;;;6.03;3.90;;;;;;;1.68;67.92;100630.63;4991590;28;20049;-50
2022/04/17 03:32:05;;;;;;;5.85;3.92;;;;;;;1.74;68.61;100623.91;4996500;28;20066;-51
2022/04/17 03:34:31;;;;;;;6.53;4.00;;;;;;;1.73;68.35;100633.66;4996335;28;20042;-51
2022/04/17 03:37:00;;;;;;;6.10;3.65;;;;;;;1.66;68.00;100616.72;4999477;28;20077;-52
2022/04/17 03:39:25;;;;;;;5.57;3.95;;;;;;;1.46;70.68;100625.78;4991643;28;20076;-51
2022/04/17 03:41:51;;;;;;;6.78;4.05;;;;;;;1.19;71.44;100630.09;4989166;28;20417;-52
2022/04/17 03:44:17;;;;;;;6.80;4.35;;;;;;;1.11;75.19;100629.19;4991112;28;20030;-53
2022/04/17 03:46:43;;;;;;;7.15;4.38;;;;;;;0.79;73.41;100630.44;4993076;28;20038;-54
2022/04/17 03:49:09;;;;;;;6.07;4.15;;;;;;;0.84;73.32;100628.19;4994417;28;20038;-52
2022/04/17 03:51:34;;;;;;;8.05;4.35;;;;;;;1.02;72.23;100628.22;4998946;28;20492;-52
2022/04/17 03:54:00;;;;;;;6.18;3.95;;;;;;;1.37;69.90;100630.13;4993583;28;20050;-53
2022/04/17 03:56:25;;;;;;;5.97;3.83;;;;;;;1.18;70.83;100622.34;4988622;28;20165;-53
2022/04/17 03:58:50;;;;;;;9.68;4.32;;;;;;;1.55;68.86;100624.03;4991071;28;20555;-51
2022/04/17 04:01:16;;;;;;;6.20;3.30;;;;;;;1.61;68.99;100623.44;4990912;28;20045;-51
2022/04/17 04:03:41;;;;;;;9.45;3.83;;;;;;;1.49;68.67;100614.91;4993287;28;20057;-53
2022/04/17 04:06:07;;;;;;;7.22;3.78;;;;;;;1.53;68.64;100620.72;4988028;28;20603;-51
2022/04/17 04:08:32;;;;;;;4.63;3.50;;;;;;;1.40;70.85;100621.06;4993956;28;20045;-53
2022/04/17 04:10:58;;;;;;;9.25;3.95;;;;;;;1.31;71.06;100621.97;4988472;28;20133;-53
2022/04/17 04:13:23;;;;;;;5.47;3.40;;;;;;;1.25;72.48;100626.06;4995847;28;20031;-52
2022/04/17 04:15:48;;;;;;;6.35;4.40;;;;;;;0.97;73.76;100619.91;4995313;28;20046;-50
2022/04/17 04:18:14;;;;;;;6.97;4.60;;;;;;;0.64;74.14;100628.25;4989518;28;20034;-54
2022/04/17 04:20:39;;;;;;;10.05;5.22;;;;;;;0.40;75.57;100633.16;4992860;28;20418;-52
2022/04/17 04:23:05;;;;;;;8.45;4.97;;;;;;;0.37;74.87;100628.19;4997949;28;20030;-53
2022/04/17 04:25:30;;;;;;;10.30;4.70;;;;;;;0.56;74.72;100629.94;4988219;28;20049;-50
2022/04/17 04:30:40;;;;;;;10.23;4.93;;;;;;;0.71;73.77;100628.50;4992604;28;20060;-52
2022/04/17 04:33:05;;;;;;;7.70;4.80;;;;;;;0.91;72.83;100626.63;4993184;28;20070;-51
2022/04/17 04:35:30;;;;;;;6.60;4.22;;;;;;;1.00;72.33;100619.63;4992849;28;20046;-51
2022/04/17 04:37:56;;;;;;;24.85;8.57;;;;;;;1.28;73.26;100628.41;4990281;28;20045;-50
2022/04/17 04:40:22;;;;;;;20.92;8.10;;;;;;;1.31;73.21;100625.44;4993362;28;20423;-52
2022/04/17 04:42:48;;;;;;;6.30;4.50;;;;;;;1.21;71.78;100628.13;4992217;28;20030;-50
2022/04/17 04:47:57;;;;;;;7.63;3.88;;;;;;;3.48;65.29;100622.94;5000087;28;20080;-50
2022/04/17 04:50:23;;;;;;;7.97;4.13;;;;;;;3.82;61.82;100627.28;4987784;28;20046;-51
2022/04/17 04:52:48;;;;;;;7.57;4.82;;;;;;;5.41;57.51;100630.13;4992544;28;20049;-50
2022/04/17 04:55:14;;;;;;;8.18;4.82;;;;;;;5.37;56.60;100632.31;4987736;28;20396;-54
2022/04/17 04:57:39;;;;;;;11.05;4.57;;;;;;;4.60;58.33;100625.97;4993399;28;20046;-52
2022/04/17 05:00:05;;;;;;;13.88;5.93;;;;;;;6.74;53.02;100636.91;4992270;28;20034;-52
2022/04/17 05:02:31;;;;;;;15.60;6.38;;;;;;;7.71;50.64;100632.22;4998970;28;20045;-51
2022/04/17 05:04:56;;;;;;;15.73;7.25;;;;;;;8.72;48.27;100634.72;4992195;28;20031;-53
2022/04/17 05:07:21;;;;;;;15.40;7.15;;;;;;;8.71;46.66;100634.91;4991245;28;20112;-52
2022/04/17 05:09:47;;;;;;;17.60;6.95;;;;;;;8.75;46.92;100636.19;4992023;28;20030;-52
2022/04/17 05:12:12;;;;;;;14.23;5.82;;;;;;;8.78;47.07;100635.78;4986311;28;20043;-53
2022/04/17 05:14:41;;;;;;;7.35;4.50;;;;;;;9.59;45.22;100646.66;4993256;28;20041;-51
2022/04/17 05:17:07;;;;;;;6.15;3.75;;;;;;;9.96;44.62;100652.53;4990415;28;20492;-51
2022/04/17 05:19:32;;;;;;;7.43;4.00;;;;;;;10.55;42.85;100649.06;4994397;28;20040;-50
2022/04/17 05:21:58;;;;;;;11.98;5.22;;;;;;;10.28;42.73;100647.41;4995298;28;20049;-50
2022/04/17 05:24:24;;;;;;;11.43;5.30;;;;;;;9.25;44.09;100645.69;4992776;28;20126;-53
2022/04/17 05:26:50;;;;;;;12.50;5.22;;;;;;;8.75;45.94;100647.69;4991130;28;20046;-53
2022/04/17 05:29:15;;;;;;;9.27;4.57;;;;;;;10.85;44.77;100643.25;4998945;28;20412;-53
2022/04/17 05:31:41;;;;;;;12.60;4.88;;;;;;;12.69;38.83;100657.72;4995388;28;20092;-54
2022/04/17 05:34:06;;;;;;;8.10;4.63;;;;;;;11.87;39.87;100656.91;4998678;28;20029;-52
2022/04/17 05:36:32;;;;;;;6.72;3.90;;;;;;;12.09;39.54;100652.00;4991458;28;20430;-51
2022/04/17 05:38:57;;;;;;;7.07;3.83;;;;;;;11.43;41.03;100651.34;5001806;28;20045;-53
2022/04/17 05:41:23;;;;;;;7.88;3.90;;;;;;;12.90;38.10;100652.97;4998566;28;20065;-53
2022/04/17 05:43:48;;;;;;;8.05;4.72;;;;;;;11.95;39.11;100663.88;4974322;28;20405;-50
2022/04/17 05:46:14;;;;;;;10.02;5.38;;;;;;;11.99;38.92;100665.94;4990497;28;20045;-51
2022/04/17 05:48:39;;;;;;;9.52;5.05;;;;;;;9.76;43.38;100665.03;4998530;28;20022;-53
2022/04/17 05:51:05;;;;;;;8.35;3.90;;;;;;;7.89;47.04;100653.13;4995434;28;20046;-54
2022/04/17 05:53:31;;;;;;;7.47;4.30;;;;;;;8.54;47.07;100642.44;4995846;28;20045;-51
2022/04/17 05:55:56;;;;;;;5.30;3.58;;;;;;;9.42;44.92;100640.84;4995419;28;20046;-51
2022/04/17 05:58:22;;;;;;;7.15;3.88;;;;;;;10.75;41.66;100638.31;5002937;28;20026;-50
2022/04/17 06:00:47;;;;;;;7.22;3.90;;;;;;;13.65;36.56;100646.50;4994572;28;20061;-51
2022/04/17 06:03:15;;;;;;;9.90;4.80;;;;;;;14.73;35.13;100650.88;4991633;28;20476;-53
2022/04/17 06:05:41;;;;;;;5.85;3.53;;;;;;;14.61;36.33;100656.25;4991740;28;20489;-53
2022/04/17 06:08:06;;;;;;;7.03;3.22;;;;;;;14.19;37.38;100655.47;4999882;28;20037;-50
2022/04/17 06:10:32;;;;;;;5.47;3.15;;;;;;;14.66;36.94;100653.69;4992472;28;20120;-52
2022/04/17 06:12:58;;;;;;;7.55;3.60;;;;;;;12.72;39.15;100654.59;4994255;28;20026;-51
2022/04/17 06:15:23;;;;;;;5.97;3.47;;;;;;;13.98;37.43;100651.44;4993638;28;20050;-51
2022/04/17 06:17:49;;;;;;;4.75;3.20;;;;;;;14.36;36.33;100659.13;4996298;28;20413;-52
2022/04/17 06:20:14;;;;;;;4.85;3.08;;;;;;;15.31;33.81;100647.25;4990665;28;20026;-51
2022/04/17 06:22:40;;;;;;;5.90;3.13;;;;;;;14.95;34.69;100650.25;4991418;28;20029;-52
2022/04/17 06:25:07;;;;;;;8.52;3.40;;;;;;;16.11;33.08;100658.22;4990328;28;20491;-50
2022/04/17 06:27:40;;;;;;;8.88;3.85;;;;;;;15.56;33.82;100651.53;4992841;28;20212;-52
2022/04/17 06:30:07;;;;;;;6.22;3.30;;;;;;;15.11;35.04;100654.94;4989615;28;20763;-50
2022/04/17 06:32:33;;;;;;;7.22;3.80;;;;;;;15.29;34.74;100651.25;4994856;28;20058;-51
2022/04/17 06:34:59;;;;;;;5.25;3.50;;;;;;;15.93;34.02;100645.75;4998046;28;20084;-49
2022/04/17 06:37:24;;;;;;;7.63;3.47;;;;;;;15.85;34.17;100646.13;4994829;28;20042;-53
2022/04/17 06:39:49;;;;;;;7.88;3.80;;;;;;;15.25;34.99;100640.13;4996732;28;20392;-48
2022/04/17 06:42:15;;;;;;;6.93;3.53;;;;;;;16.29;33.34;100639.06;4997251;28;20045;-50
2022/04/17 06:44:40;;;;;;;6.30;3.42;;;;;;;15.94;33.00;100631.16;4989977;28;20161;-51
2022/04/17 06:47:06;;;;;;;6.00;3.47;;;;;;;16.57;32.90;100630.03;4994174;28;20042;-51
2022/04/17 06:49:31;;;;;;;6.97;3.28;;;;;;;15.93;33.16;100619.53;5002557;28;20098;-53
2022/04/17 06:51:56;;;;;;;5.47;3.10;;;;;;;16.28;32.85;100620.38;4993841;28;20113;-52
2022/04/17 06:54:22;;;;;;;5.88;3.17;;;;;;;16.36;32.15;100617.25;4996732;28;20642;-51
2022/04/17 06:56:47;;;;;;;5.80;3.20;;;;;;;16.01;32.88;100610.19;4994237;28;20646;-52
2022/04/17 06:59:13;;;;;;;12.05;3.70;;;;;;;16.79;32.47;100610.31;4990069;28;20049;-51
2022/04/17 07:01:38;;;;;;;6.18;3.00;;;;;;;16.03;33.38;100610.78;4993639;28;20041;-52
2022/04/17 07:04:04;;;;;;;6.15;3.92;;;;;;;16.34;33.10;100603.16;4995641;28;20476;-52
2022/04/17 07:06:29;;;;;;;4.93;3.05;;;;;;;17.18;32.19;100596.75;4996595;28;20508;-51
2022/04/17 07:08:54;;;;;;;6.25;3.55;;;;;;;17.87;30.30;100593.41;4994252;28;20022;-52
2022/04/17 07:11:23;;;;;;;4.82;3.22;;;;;;;17.20;31.65;100594.63;4990548;28;20042;-52
2022/04/17 07:13:48;;;;;;;6.05;3.35;;;;;;;17.42;31.18;100597.28;4990024;28;20045;-51
2022/04/17 07:16:13;;;;;;;7.88;3.30;;;;;;;14.17;35.95;100596.38;4988712;28;20039;-52
2022/04/17 07:18:39;;;;;;;6.00;3.35;;;;;;;15.94;34.67;100590.59;4988569;28;20030;-52
2022/04/17 07:21:05;;;;;;;6.47;3.63;;;;;;;17.53;30.85;100598.22;4993618;28;20519;-50
2022/04/17 07:23:30;;;;;;;8.45;3.35;;;;;;;17.23;32.03;100599.53;5003087;28;20026;-53
2022/04/17 07:25:57;;;;;;;6.30;2.90;;;;;;;17.12;30.14;100586.91;4995906;28;20096;-52
2022/04/17 07:28:23;;;;;;;5.47;2.80;;;;;;;16.83;30.78;100592.53;4994857;28;20546;-53
2022/04/17 07:30:49;;;;;;;5.97;3.42;;;;;;;15.55;32.67;100593.16;4998562;28;20042;-50
2022/04/17 07:33:16;;;;;;;6.38;3.45;;;;;;;13.35;36.24;100590.75;5000828;28;20042;-52
2022/04/17 07:35:41;;;;;;;5.57;3.05;;;;;;;14.00;35.77;100593.56;4993934;28;20149;-49
2022/04/17 07:38:07;;;;;;;4.90;3.10;;;;;;;12.67;36.36;100597.94;4992605;28;20465;-51
2022/04/17 07:40:34;;;;;;;4.28;2.83;;;;;;;12.14;39.14;100587.69;4993048;28;20473;-51
2022/04/17 07:43:00;;;;;;;7.30;3.25;;;;;;;11.83;38.13;100581.28;4989920;28;20022;-53
2022/04/17 07:45:26;;;;;;;6.20;3.35;;;;;;;12.66;38.80;100580.16;4992611;28;20066;-52
2022/04/17 07:47:52;;;;;;;6.05;3.20;;;;;;;12.74;38.43;100582.56;4994549;28;20065;-53
2022/04/17 07:50:19;;;;;;;6.80;3.47;;;;;;;13.72;37.28;100582.59;4993804;28;20523;-49
2022/04/17 07:52:45;;;;;;;5.47;3.20;;;;;;;14.89;34.35;100579.16;4993181;28;20536;-52
2022/04/17 07:55:11;;;;;;;6.20;3.10;;;;;;;12.32;38.05;100572.66;4988778;28;20149;-51
2022/04/17 08:00:22;;;;;;;4.85;2.90;;;;;;;11.59;40.44;100568.63;4987929;28;20121;-52
2022/04/17 08:02:54;;;;;;;6.75;3.58;;;;;;;11.44;40.92;100576.97;4996500;28;20157;-51
2022/04/17 08:05:23;;;;;;;5.68;2.60;;;;;;;10.08;41.43;100580.41;4993489;28;20081;-52
2022/04/17 08:07:49;;;;;;;5.78;3.83;;;;;;;10.38;41.92;100571.97;4996020;28;20022;-54
2022/04/17 08:10:15;;;;;;;5.57;3.33;;;;;;;11.21;40.24;100569.47;4992617;28;20061;-52
2022/04/17 08:12:41;;;;;;;7.10;3.60;;;;;;;10.14;41.89;100564.34;4994940;28;20065;-52
2022/04/17 08:15:07;;;;;;;5.65;3.15;;;;;;;10.58;42.92;100562.03;4992765;28;20037;-51
2022/04/17 08:17:32;;;;;;;6.47;3.22;;;;;;;11.59;40.36;100553.34;4988511;28;20022;-54
2022/04/17 08:19:58;;;;;;;4.45;2.97;;;;;;;11.47;40.29;100549.69;4988882;28;20396;-50
2022/04/17 08:22:23;;;;;;;7.20;2.85;;;;;;;11.65;40.31;100559.69;4998025;28;20038;-50
2022/04/17 08:24:48;;;;;;;5.20;3.13;;;;;;;12.38;38.19;100550.25;4996809;28;20026;-51
2022/04/17 08:27:14;;;;;;;16.15;3.20;;;;;;;12.15;38.68;100557.06;4996001;28;20042;-49
2022/04/17 08:29:39;;;;;;;6.55;2.92;;;;;;;12.17;39.64;100565.72;4995489;28;20080;-51
2022/04/17 08:32:05;;;;;;;6.35;3.03;;;;;;;12.43;39.64;100558.47;4988176;28;20049;-49
2022/04/17 08:34:30;;;;;;;6.28;2.90;;;;;;;11.46;40.56;100548.06;4987522;28;20034;-50
2022/04/17 08:36:56;;;;;;;5.30;2.75;;;;;;;11.64;38.44;100540.09;4991034;28;20053;-52
2022/04/17 08:39:21;;;;;;;5.30;2.58;;;;;;;11.63;38.86;100553.72;4992613;28;20026;-52
2022/04/17 08:41:47;;;;;;;4.80;3.00;;;;;;;10.98;40.75;100556.53;4994523;28;20045;-49
2022/04/17 08:44:13;;;;;;;5.35;2.70;;;;;;;11.39;40.77;100566.06;4994452;28;20046;-51
2022/04/17 08:46:40;;;;;;;5.03;2.90;;;;;;;11.22;40.25;100546.94;4992449;28;20058;-52
2022/04/17 08:49:07;;;;;;;7.07;3.20;;;;;;;11.90;38.85;100542.81;4994175;28;20038;-50
2022/04/17 08:51:32;;;;;;;5.75;2.85;;;;;;;12.05;38.62;100548.69;4980868;28;20038;-52
2022/04/17 08:53:59;;;;;;;6.40;2.65;;;;;;;12.38;37.93;100532.25;4993239;28;20034;-52
2022/04/17 08:56:24;;;;;;;5.32;3.08;;;;;;;12.22;38.26;100528.25;4986553;28;20039;-50
2022/04/17 08:58:49;;;;;;;5.93;2.60;;;;;;;10.93;39.55;100534.91;4988751;28;20444;-50
2022/04/17 09:01:17;;;;;;;5.63;3.00;;;;;;;11.18;40.73;100529.63;4998841;28;20451;-49
2022/04/17 09:03:45;;;;;;;4.97;2.88;;;;;;;10.86;39.73;100521.53;4995130;28;20034;-50
2022/04/17 09:06:11;;;;;;;5.15;3.03;;;;;;;11.62;39.52;100514.47;4999431;28;20038;-51
2022/04/17 09:08:36;;;;;;;6.38;3.30;;;;;;;13.16;37.93;100501.13;4996877;28;20049;-50
2022/04/17 09:11:02;;;;;;;5.85;3.00;;;;;;;12.13;38.38;100499.19;4997819;28;20058;-50
2022/04/17 09:13:32;;;;;;;4.05;2.65;;;;;;;13.38;36.58;100501.47;4996221;28;20077;-51
2022/04/17 09:15:58;;;;;;;;;;;;;;;13.19;37.41;100502.53;4996446;28;20065;-53
2022/04/17 09:18:27;;;;;;;4.78;2.40;;;;;;;14.09;36.82;100504.25;5029567;28;19917;-52
2022/04/17 09:20:52;;;;;;;6.07;2.80;;;;;;;12.42;37.94;100508.44;4992458;28;20038;-50
2022/04/17 09:23:34;;;;;;;4.95;2.70;;;;;;;12.41;38.72;100504.13;4995607;28;20736;-51
2022/04/17 09:26:00;;;;;;;7.10;2.90;;;;;;;13.38;36.96;100504.16;4991995;28;20039;-53
2022/04/17 09:28:30;;;;;;;5.65;2.70;;;;;;;13.66;36.67;100497.31;5000810;28;20040;-51
2022/04/17 09:30:57;;;;;;;6.05;2.70;;;;;;;13.22;36.88;100489.41;4991320;28;20447;-52
2022/04/17 09:33:22;;;;;;;6.10;2.70;;;;;;;13.69;37.08;100491.44;4992319;28;20697;-52
2022/04/17 09:35:54;;;;;;;9.10;5.10;;;;;;;14.44;35.51;100499.66;4977056;28;20053;-50
2022/04/17 09:38:22;;;;;;;46.50;26.10;;;;;;;14.57;35.65;100497.78;5001323;28;20149;-52
2022/04/17 09:40:49;;;;;;;5.63;3.40;;;;;;;15.30;34.29;100491.66;4991447;28;20615;-53
2022/04/17 09:43:16;;;;;;;4.55;2.53;;;;;;;16.15;31.89;100486.31;5002461;28;20073;-52
2022/04/17 09:45:59;;;;;;;7.97;4.38;;;;;;;15.23;33.67;100474.78;4994105;28;20073;-51
2022/04/17 09:48:25;;;;;;;6.38;2.70;;;;;;;14.92;33.43;100472.56;5000067;28;20033;-51
2022/04/17 09:50:51;;;;;;;4.15;2.38;;;;;;;15.97;32.93;100468.44;4977314;28;20129;-50
2022/04/17 09:53:30;;;;;;;5.75;2.67;;;;;;;15.94;32.81;100466.22;4992017;28;20027;-53
2022/04/17 09:56:11;;;;;;;6.75;2.50;;;;;;;13.84;37.13;100464.06;4996578;28;20035;-51
2022/04/17 09:58:45;;;;;;;4.18;2.67;;;;;;;14.29;36.82;100447.25;4997349;28;20320;-50
2022/04/17 10:01:15;;;;;;;4.40;2.63;;;;;;;13.85;36.82;100453.03;4998468;28;20270;-50
2022/04/17 10:03:40;;;;;;;4.53;2.72;;;;;;;14.42;36.46;100457.78;4998045;28;21387;-50
2022/04/17 10:06:06;;;;;;;4.82;2.60;;;;;;;14.20;37.38;100455.72;5001023;28;20077;-52
2022/04/17 10:08:32;;;;;;;6.30;2.60;;;;;;;15.27;34.76;100448.09;4991909;28;20022;-53
2022/04/17 10:10:57;;;;;;;4.25;2.65;;;;;;;15.52;33.88;100455.81;4990900;28;20053;-53
2022/04/17 10:13:23;;;;;;;5.90;2.80;;;;;;;15.27;34.20;100448.09;4981995;28;20386;-54
2022/04/17 10:15:49;;;;;;;7.00;2.78;;;;;;;16.50;33.54;100439.13;4995001;28;20424;-53
2022/04/17 10:18:14;;;;;;;4.28;2.50;;;;;;;16.63;33.20;100435.22;4997344;28;20084;-51
2022/04/17 10:20:40;;;;;;;4.55;2.42;;;;;;;16.93;31.50;100430.19;4989649;28;20096;-52
2022/04/17 10:23:07;;;;;;;4.60;2.40;;;;;;;16.48;31.74;100430.47;4989667;28;20072;-51
2022/04/17 10:25:33;;;;;;;5.28;2.90;;;;;;;16.60;31.72;100421.13;4974003;28;20034;-50
2022/04/17 10:28:00;;;;;;;7.20;2.70;;;;;;;16.69;30.48;100426.09;4989830;28;20397;-51
2022/04/17 10:30:47;;;;;;;4.85;2.50;;;;;;;16.02;31.57;100425.25;4994927;28;20053;-53
2022/04/17 10:33:31;;;;;;;5.60;2.75;;;;;;;16.49;31.44;100421.25;4991526;28;20341;-53
2022/04/17 10:36:14;;;;;;;4.53;2.60;;;;;;;16.29;32.06;100409.09;5001348;28;20046;-52
2022/04/17 10:38:42;;;;;;;5.68;2.72;;;;;;;17.36;30.81;100414.84;4994391;28;20025;-52
2022/04/17 10:41:08;;;;;;;4.43;2.50;;;;;;;16.22;32.90;100405.75;4999721;28;20044;-53
2022/04/17 10:43:42;;;;;;;7.47;2.50;;;;;;;16.14;33.66;100404.31;4975843;28;20030;-54
2022/04/17 10:46:12;;;;;;;5.03;3.13;;;;;;;16.57;31.96;100399.16;4992360;28;20054;-52
2022/04/17 10:48:44;;;;;;;4.53;2.40;;;;;;;16.21;32.24;100395.22;4993821;28;20069;-53
2022/04/17 10:51:21;;;;;;;5.80;2.60;;;;;;;15.52;34.21;100393.66;4997709;28;20074;-53
2022/04/17 10:53:50;;;;;;;5.75;2.67;;;;;;;15.71;34.33;100400.47;4996432;28;20029;-50
2022/04/17 10:56:16;;;;;;;5.20;2.40;;;;;;;15.09;34.22;100387.84;4989851;28;20046;-51
2022/04/17 10:58:51;;;;;;;5.88;2.38;;;;;;;14.75;34.42;100389.69;4993657;28;20113;-53
2022/04/17 11:01:16;;;;;;;5.25;2.60;;;;;;;14.66;34.78;100385.72;4989790;28;20069;-51
2022/04/17 11:03:52;;;;;;;5.60;2.75;;;;;;;16.61;33.82;100373.22;4989109;28;20041;-51
2022/04/17 11:06:30;;;;;;;5.60;2.55;;;;;;;16.51;33.80;100371.22;4990056;28;20049;-50
2022/04/17 11:09:02;;;;;;;6.13;2.53;;;;;;;17.25;31.54;100369.81;4989645;28;20642;-53
2022/04/17 11:11:43;;;;;;;4.75;2.42;;;;;;;16.40;32.28;100369.50;4988285;28;20054;-54
2022/04/17 11:14:12;;;;;;;4.65;2.22;;;;;;;16.08;33.71;100353.94;4997113;28;20057;-51
2022/04/17 11:16:51;;;;;;;3.85;2.45;;;;;;;15.07;34.31;100351.34;4994356;28;20038;-52
2022/04/17 11:19:21;;;;;;;5.88;2.50;;;;;;;16.00;33.35;100354.41;4994991;28;20038;-51
2022/04/17 11:21:47;;;;;;;4.03;2.50;;;;;;;16.09;32.15;100352.88;4995129;28;20468;-51
2022/04/17 11:24:13;;;;;;;4.88;2.65;;;;;;;15.84;34.11;100349.84;4994844;28;20378;-51
2022/04/17 11:26:50;;;;;;;3.97;2.30;;;;;;;17.40;31.14;100342.00;4994831;28;20171;-54
2022/04/17 11:29:16;;;;;;;4.65;2.55;;;;;;;16.77;30.81;100341.72;4996382;28;20058;-54
2022/04/17 11:31:41;;;;;;;4.93;2.50;;;;;;;16.24;32.10;100332.50;4997075;28;20038;-55
2022/04/17 11:34:07;;;;;;;7.10;2.20;;;;;;;17.53;31.10;100338.84;4996151;28;20476;-52
2022/04/17 11:36:32;;;;;;;4.55;2.20;;;;;;;17.53;30.26;100332.59;4997942;28;20112;-54
2022/04/17 11:38:58;;;;;;;4.63;2.33;;;;;;;16.56;31.97;100319.84;4992479;28;20022;-54
2022/04/17 11:41:23;;;;;;;4.07;2.20;;;;;;;14.88;32.44;100321.91;4994390;28;20043;-54
2022/04/17 11:43:59;;;;;;;3.90;2.13;;;;;;;14.22;32.77;100318.78;4997141;28;20037;-52